메인 페이지
METAR-TAF:

METAR-TAF

공항 :

코타키나발루 국제공항

코타키나발루, 말레이시아

위도: 05-56N, 경도: 116-03E, 고도: 3m

현재 날씨관측

예보는 54분 전, 14:00시(UTC)에 발표되었습니다.
동남동5kt
온도 28°C
습도 84%
기압 1009 hPa
시정 10km 이상
고도 1400ft 상공 구름 조금

METAR: WBKK 251400Z 11005KT 9999 FEW014 28/25 Q1009 NOSIG

시각: 22:54 (14:54 UTC)

예보

예보는 3 시간 54분 전, 11:00시(UTC)에 발표되었습니다.
예보 대상 시간: 25일 12시부터 26일 12시까지 (UTC)
동남동5kt
시정 10km 이상
고도 1400ft 상공 구름 조금
확률 30% :
일시적
25일 20시부터 26일 00시까지 (UTC)
시정: 5000m
고도 1000ft 상공 구름 조금
고도 1600ft 상공 구름 조금, 적란운.
고도 3500ft 상공 구름 보통
뇌우, 비
전환 중
26일 00시부터 26일 02시까지 (UTC)
남서5kt

TAF: WBKK 251100Z 2512/2612 11005KT 9999 FEW014 PROB30 TEMPO 2520/2600 5000 TSRA FEW010 FEW016CB SCT035 BECMG 2600/2602 23005KT

4,000개 이상의 공항 관측 자료 및 예보 (METAR 및 TAF 보고).

지도상에서 검색 가능한 기상관측소가 노란 점과 빨간 점으로 표시되어 있습니다.

기상관측소 명을 보려면 표시 위로 마우스를 이동하세요.

날씨 관측과 예보를 보려면 클릭하세요.

지도 변경 : 확대하려면 엑스 표시가 있는 녹색 버튼, 축소하려면 빼기 표시가 있는 녹색 버튼, 다음 페이지의 지도를 보려면 녹색 화살표를 클릭하세요.


METAR-TAF: